createdAt,value
2019-03-30T00:00:04.018Z,25
2019-03-30T00:01:01.804Z,29
2019-03-30T00:02:02.149Z,25
2019-03-30T00:03:02.287Z,25
2019-03-30T00:04:02.530Z,26
2019-03-30T00:05:01.895Z,23
2019-03-30T00:06:02.056Z,26
2019-03-30T00:07:02.268Z,24
2019-03-30T00:08:02.510Z,23
2019-03-30T00:09:01.882Z,23
2019-03-30T00:10:02.162Z,23
2019-03-30T00:11:02.267Z,24
2019-03-30T00:12:02.526Z,24
2019-03-30T00:13:01.719Z,24
2019-03-30T00:14:01.966Z,25
2019-03-30T00:15:02.282Z,23
2019-03-30T00:16:02.404Z,25
2019-03-30T00:17:02.571Z,26
2019-03-30T00:18:01.622Z,23
2019-03-30T00:19:01.909Z,25
2019-03-30T00:20:01.717Z,22
2019-03-30T00:21:01.857Z,26
2019-03-30T00:22:02.168Z,25
2019-03-30T00:23:02.431Z,26
2019-03-30T00:24:01.755Z,24
2019-03-30T00:25:01.856Z,25
2019-03-30T00:26:02.075Z,27
2019-03-30T00:27:02.270Z,22
2019-03-30T00:28:02.475Z,27
2019-03-30T00:29:01.677Z,28
2019-03-30T00:30:01.941Z,24
2019-03-30T00:31:02.146Z,23
2019-03-30T00:32:02.365Z,28
2019-03-30T00:33:01.680Z,28
2019-03-30T00:34:01.835Z,24
2019-03-30T00:35:02.079Z,26
2019-03-30T00:36:02.341Z,25
2019-03-30T00:37:02.507Z,25
2019-03-30T00:38:01.774Z,28
2019-03-30T00:39:01.648Z,26
2019-03-30T00:40:02.373Z,25
2019-03-30T00:41:02.620Z,23
2019-03-30T00:42:01.818Z,23
2019-03-30T00:43:02.156Z,28
2019-03-30T00:44:01.898Z,28
2019-03-30T00:45:02.250Z,23
2019-03-30T00:46:02.470Z,23
2019-03-30T00:47:01.780Z,28
2019-03-30T00:48:01.986Z,29
2019-03-30T00:49:02.210Z,23
2019-03-30T00:50:02.522Z,26
2019-03-30T00:51:02.519Z,27
2019-03-30T00:52:01.681Z,23
2019-03-30T00:53:02.053Z,29
2019-03-30T00:54:02.218Z,23
2019-03-30T00:55:02.517Z,25
2019-03-30T00:56:01.668Z,27
2019-03-30T00:57:01.902Z,24
2019-03-30T00:58:02.062Z,27
2019-03-30T00:59:02.258Z,25
2019-03-30T01:00:04.689Z,26
2019-03-30T01:01:02.561Z,26
2019-03-30T01:02:01.757Z,26
2019-03-30T01:03:02.065Z,29
2019-03-30T01:04:02.266Z,25
2019-03-30T01:05:02.596Z,22
2019-03-30T01:06:01.736Z,23
2019-03-30T01:07:01.959Z,25
2019-03-30T01:08:02.210Z,28
2019-03-30T01:09:01.852Z,25
2019-03-30T01:10:02.481Z,27
2019-03-30T01:11:01.726Z,23
2019-03-30T01:12:01.942Z,27
2019-03-30T01:13:02.149Z,29
2019-03-30T01:14:02.382Z,29
2019-03-30T01:15:02.602Z,25
2019-03-30T01:16:01.811Z,27
2019-03-30T01:17:02.113Z,24
2019-03-30T01:18:02.290Z,27
2019-03-30T01:19:02.594Z,27
2019-03-30T01:20:04.038Z,24
2019-03-30T01:21:01.935Z,26
2019-03-30T01:22:02.188Z,27
2019-03-30T01:23:02.361Z,26
2019-03-30T01:24:02.646Z,26
2019-03-30T01:25:01.892Z,28
2019-03-30T01:26:02.087Z,32
2019-03-30T01:27:02.394Z,26
2019-03-30T01:28:02.615Z,27
2019-03-30T01:29:01.864Z,28
2019-03-30T01:30:02.589Z,24
2019-03-30T01:31:01.738Z,30
2019-03-30T01:32:01.954Z,25
2019-03-30T01:33:02.124Z,29
2019-03-30T01:34:02.415Z,31
2019-03-30T01:35:02.713Z,25
2019-03-30T01:36:01.873Z,25
2019-03-30T01:37:02.114Z,30
2019-03-30T01:38:02.305Z,26
2019-03-30T01:39:02.562Z,27
2019-03-30T01:40:01.802Z,26
2019-03-30T01:41:02.004Z,27
2019-03-30T01:42:01.949Z,25
2019-03-30T01:43:02.246Z,28
2019-03-30T01:44:02.509Z,22
2019-03-30T01:45:01.710Z,26
2019-03-30T01:46:01.990Z,26
2019-03-30T01:47:02.166Z,29
2019-03-30T01:48:02.412Z,29
2019-03-30T01:49:01.646Z,25
2019-03-30T01:50:16.187Z,24
2019-03-30T01:51:02.074Z,27
2019-03-30T01:52:02.270Z,28
2019-03-30T01:53:02.429Z,25
2019-03-30T01:54:01.672Z,25
2019-03-30T01:55:01.946Z,27
2019-03-30T01:56:02.099Z,28
2019-03-30T01:57:02.419Z,23
2019-03-30T01:58:02.600Z,27
2019-03-30T01:59:01.810Z,29
2019-03-30T02:00:03.972Z,29
2019-03-30T02:01:02.085Z,28
2019-03-30T02:02:02.260Z,26
2019-03-30T02:03:02.489Z,33
2019-03-30T02:04:01.800Z,28
2019-03-30T02:05:02.020Z,28
2019-03-30T02:06:02.319Z,28
2019-03-30T02:07:02.470Z,27
2019-03-30T02:08:01.649Z,29
2019-03-30T02:09:01.842Z,25
2019-03-30T02:10:02.140Z,30
2019-03-30T02:11:02.461Z,25
2019-03-30T02:12:02.625Z,28
2019-03-30T02:13:01.747Z,25
2019-03-30T02:14:02.017Z,28
2019-03-30T02:15:02.269Z,26
2019-03-30T02:16:02.561Z,28
2019-03-30T02:17:01.691Z,28
2019-03-30T02:18:01.883Z,28
2019-03-30T02:19:02.133Z,30
2019-03-30T02:20:02.431Z,28
2019-03-30T02:21:02.683Z,30
2019-03-30T02:22:01.834Z,27
2019-03-30T02:23:02.108Z,25
2019-03-30T02:24:02.397Z,26
2019-03-30T02:25:02.703Z,28
2019-03-30T02:26:01.891Z,33
2019-03-30T02:27:02.105Z,25
2019-03-30T02:28:02.257Z,28
2019-03-30T02:29:02.531Z,26
2019-03-30T02:30:01.844Z,26
2019-03-30T02:31:02.056Z,29
2019-03-30T02:32:02.296Z,29
2019-03-30T02:33:02.467Z,31
2019-03-30T02:34:01.676Z,30
2019-03-30T02:35:02.343Z,27
2019-03-30T02:36:02.316Z,27
2019-03-30T02:37:02.455Z,28
2019-03-30T02:38:01.651Z,30
2019-03-30T02:39:01.927Z,25
2019-03-30T02:40:02.787Z,26
2019-03-30T02:41:02.640Z,27
2019-03-30T02:42:01.698Z,30
2019-03-30T02:43:02.038Z,29
2019-03-30T02:44:02.169Z,30
2019-03-30T02:45:02.412Z,28
2019-03-30T02:46:02.660Z,28
2019-03-30T02:47:01.859Z,26
2019-03-30T02:48:01.996Z,27
2019-03-30T02:49:02.266Z,35
2019-03-30T02:50:02.576Z,29
2019-03-30T02:51:01.817Z,28
2019-03-30T02:52:02.115Z,26
2019-03-30T02:53:02.222Z,28
2019-03-30T02:54:02.520Z,29
2019-03-30T02:55:01.703Z,30
2019-03-30T02:56:01.889Z,28
2019-03-30T02:57:02.197Z,28
2019-03-30T02:58:02.369Z,27
2019-03-30T02:59:02.538Z,26
2019-03-30T03:00:03.658Z,27
2019-03-30T03:01:02.401Z,27
2019-03-30T03:02:01.613Z,32
2019-03-30T03:03:01.966Z,30
2019-03-30T03:04:02.120Z,30
2019-03-30T03:05:02.412Z,30
2019-03-30T03:06:01.636Z,30
2019-03-30T03:07:01.814Z,28
2019-03-30T03:08:02.053Z,30
2019-03-30T03:09:02.252Z,33
2019-03-30T03:10:02.470Z,27
2019-03-30T03:11:01.679Z,26
2019-03-30T03:12:01.960Z,28
2019-03-30T03:13:02.227Z,28
2019-03-30T03:14:02.397Z,26
2019-03-30T03:15:01.899Z,30
2019-03-30T03:16:02.012Z,35
2019-03-30T03:17:02.229Z,29
2019-03-30T03:18:02.472Z,25
2019-03-30T03:19:01.711Z,28
2019-03-30T03:20:01.939Z,29
2019-03-30T03:21:09.053Z,28
2019-03-30T03:22:02.426Z,25
2019-03-30T03:23:02.571Z,26
2019-03-30T03:24:01.797Z,29
2019-03-30T03:25:02.086Z,29
2019-03-30T03:26:02.375Z,33
2019-03-30T03:27:02.550Z,32
2019-03-30T03:28:01.745Z,29
2019-03-30T03:29:01.958Z,33
2019-03-30T03:30:02.336Z,29
2019-03-30T03:31:02.470Z,25
2019-03-30T03:32:02.635Z,30
2019-03-30T03:33:01.822Z,28
2019-03-30T03:34:02.449Z,30
2019-03-30T03:35:02.572Z,27
2019-03-30T03:36:02.483Z,34
2019-03-30T03:37:06.267Z,27
2019-03-30T03:38:06.519Z,28
2019-03-30T03:39:02.261Z,26
2019-03-30T03:40:02.448Z,31
2019-03-30T03:41:01.699Z,30
2019-03-30T03:42:01.962Z,29
2019-03-30T03:43:02.082Z,28
2019-03-30T03:44:02.341Z,28
2019-03-30T03:45:02.582Z,30
2019-03-30T03:46:01.853Z,36
2019-03-30T03:47:02.118Z,27
2019-03-30T03:48:02.337Z,29
2019-03-30T03:49:02.202Z,27
2019-03-30T03:50:01.996Z,33
2019-03-30T03:51:02.209Z,30
2019-03-30T03:52:02.532Z,25
2019-03-30T03:53:01.734Z,29
2019-03-30T03:54:02.054Z,35
2019-03-30T03:55:02.349Z,29
2019-03-30T03:56:02.551Z,33
2019-03-30T03:57:01.893Z,28
2019-03-30T03:58:02.044Z,28
2019-03-30T03:59:02.245Z,30
2019-03-30T04:00:02.522Z,28
2019-03-30T04:01:01.666Z,30
2019-03-30T04:02:01.909Z,32
2019-03-30T04:03:02.127Z,31
2019-03-30T04:04:02.412Z,28
2019-03-30T04:05:02.655Z,27
2019-03-30T04:06:01.887Z,30
2019-03-30T04:07:02.209Z,24
2019-03-30T04:08:02.415Z,30
2019-03-30T04:09:02.580Z,32
2019-03-30T04:10:01.866Z,30
2019-03-30T04:11:02.113Z,29
2019-03-30T04:12:02.416Z,29
2019-03-30T04:13:07.656Z,30
2019-03-30T04:14:01.908Z,29
2019-03-30T04:15:02.098Z,26
2019-03-30T04:16:02.319Z,31
2019-03-30T04:17:02.528Z,27
2019-03-30T04:18:01.804Z,27
2019-03-30T04:19:01.982Z,35
2019-03-30T04:20:02.245Z,30
2019-03-30T04:21:02.515Z,34
2019-03-30T04:22:01.684Z,30
2019-03-30T04:23:01.889Z,27
2019-03-30T04:24:02.101Z,28
2019-03-30T04:25:02.460Z,30
2019-03-30T04:26:01.660Z,29
2019-03-30T04:27:01.817Z,35
2019-03-30T04:28:02.058Z,35
2019-03-30T04:29:02.298Z,30
2019-03-30T04:30:02.572Z,30
2019-03-30T04:31:01.811Z,29
2019-03-30T04:32:01.995Z,30
2019-03-30T04:33:02.334Z,29
2019-03-30T04:34:02.655Z,29
2019-03-30T04:35:01.919Z,28
2019-03-30T04:36:02.079Z,29
2019-03-30T04:37:02.323Z,34
2019-03-30T04:38:02.534Z,30
2019-03-30T04:39:01.722Z,31
2019-03-30T04:40:01.915Z,37
2019-03-30T04:41:02.210Z,32
2019-03-30T04:42:01.649Z,28
2019-03-30T04:43:01.812Z,25
2019-03-30T04:44:02.301Z,32
2019-03-30T04:45:02.542Z,29
2019-03-30T04:46:02.331Z,33
2019-03-30T04:47:07.090Z,31
2019-03-30T04:48:01.707Z,31
2019-03-30T04:49:02.017Z,31
2019-03-30T04:50:02.268Z,35
2019-03-30T04:51:02.392Z,28
2019-03-30T04:52:02.597Z,34
2019-03-30T04:53:01.913Z,30
2019-03-30T04:54:02.073Z,30
2019-03-30T04:55:02.293Z,31
2019-03-30T04:56:02.578Z,29
2019-03-30T04:57:01.760Z,28
2019-03-30T04:58:02.060Z,30
2019-03-30T04:59:02.272Z,29
2019-03-30T05:00:04.225Z,33
2019-03-30T05:01:02.033Z,28
2019-03-30T05:02:02.307Z,29
2019-03-30T05:03:02.490Z,26
2019-03-30T05:04:01.657Z,32
2019-03-30T05:05:01.864Z,31
2019-03-30T05:06:02.144Z,29
2019-03-30T05:07:02.358Z,28
2019-03-30T05:08:02.649Z,28
2019-03-30T05:09:01.869Z,30
2019-03-30T05:10:02.182Z,31
2019-03-30T05:11:02.360Z,33
2019-03-30T05:12:02.611Z,31
2019-03-30T05:13:01.819Z,28
2019-03-30T05:14:02.092Z,32
2019-03-30T05:15:02.366Z,33
2019-03-30T05:16:01.701Z,31
2019-03-30T05:17:01.817Z,36
2019-03-30T05:18:02.088Z,29
2019-03-30T05:19:02.284Z,32
2019-03-30T05:20:02.536Z,33
2019-03-30T05:21:01.794Z,28
2019-03-30T05:22:16.609Z,33
2019-03-30T05:23:02.080Z,30
2019-03-30T05:24:02.307Z,32
2019-03-30T05:25:02.646Z,29
2019-03-30T05:26:02.646Z,28
2019-03-30T05:27:01.789Z,29
2019-03-30T05:28:01.996Z,28
2019-03-30T05:29:02.182Z,27
2019-03-30T05:30:02.441Z,34
2019-03-30T05:31:02.607Z,30
2019-03-30T05:32:01.849Z,32
2019-03-30T05:33:06.763Z,28
2019-03-30T05:34:02.346Z,29
2019-03-30T05:35:02.554Z,32
2019-03-30T05:36:01.833Z,29
2019-03-30T05:37:02.039Z,31
2019-03-30T05:38:02.287Z,31
2019-03-30T05:39:02.514Z,30
2019-03-30T05:40:01.723Z,30
2019-03-30T05:41:02.022Z,31
2019-03-30T05:42:02.135Z,25
2019-03-30T05:43:02.377Z,30
2019-03-30T05:44:01.685Z,28
2019-03-30T05:45:01.876Z,31
2019-03-30T05:46:02.020Z,28
2019-03-30T05:47:02.326Z,32
2019-03-30T05:48:02.529Z,26
2019-03-30T05:49:01.773Z,32
2019-03-30T05:50:02.002Z,30
2019-03-30T05:51:02.203Z,29
2019-03-30T05:52:02.323Z,32
2019-03-30T05:53:02.591Z,30
2019-03-30T05:54:01.780Z,30
2019-03-30T05:55:02.104Z,30
2019-03-30T05:56:02.275Z,30
2019-03-30T05:57:02.530Z,30
2019-03-30T05:58:02.195Z,30
2019-03-30T05:59:02.355Z,30
2019-03-30T06:00:04.423Z,28
2019-03-30T06:01:02.098Z,25
2019-03-30T06:02:02.269Z,34
2019-03-30T06:03:02.550Z,31
2019-03-30T06:04:01.759Z,32
2019-03-30T06:05:04.281Z,27
2019-03-30T06:06:02.225Z,28
2019-03-30T06:07:02.395Z,31
2019-03-30T06:08:01.755Z,29
2019-03-30T06:09:01.927Z,33
2019-03-30T06:10:02.177Z,31
2019-03-30T06:11:02.404Z,28
2019-03-30T06:12:02.599Z,29
2019-03-30T06:13:01.901Z,30
2019-03-30T06:14:02.063Z,29
2019-03-30T06:15:02.381Z,29
2019-03-30T06:16:01.671Z,29
2019-03-30T06:17:01.838Z,31
2019-03-30T06:18:02.089Z,32
2019-03-30T06:19:02.380Z,27
2019-03-30T06:20:02.613Z,28
2019-03-30T06:21:01.805Z,29
2019-03-30T06:22:02.039Z,32
2019-03-30T06:23:02.367Z,28
2019-03-30T06:24:02.467Z,29
2019-03-30T06:25:01.694Z,30
2019-03-30T06:26:01.980Z,26
2019-03-30T06:27:02.174Z,29
2019-03-30T06:28:02.406Z,31
2019-03-30T06:29:02.503Z,29
2019-03-30T06:30:01.781Z,30
2019-03-30T06:31:02.451Z,28
2019-03-30T06:32:01.707Z,28
2019-03-30T06:33:01.981Z,28
2019-03-30T06:34:02.078Z,29
2019-03-30T06:35:02.356Z,39
2019-03-30T06:36:02.490Z,47
2019-03-30T06:37:02.259Z,51
2019-03-30T06:38:02.551Z,50
2019-03-30T06:39:02.598Z,55
2019-03-30T06:40:02.264Z,50
2019-03-30T06:41:02.245Z,53
2019-03-30T06:42:02.462Z,53
2019-03-30T06:43:01.721Z,52
2019-03-30T06:44:01.950Z,55
2019-03-30T06:45:02.039Z,52
2019-03-30T06:46:02.111Z,47
2019-03-30T06:47:02.316Z,49
2019-03-30T06:48:02.527Z,47
2019-03-30T06:49:01.749Z,43
2019-03-30T06:50:02.013Z,48
2019-03-30T06:51:02.283Z,48
2019-03-30T06:52:02.492Z,41
2019-03-30T06:53:01.713Z,45
2019-03-30T06:54:01.965Z,45
2019-03-30T06:55:02.123Z,45
2019-03-30T06:56:02.121Z,46
2019-03-30T06:57:02.237Z,45
2019-03-30T06:58:02.482Z,47
2019-03-30T06:59:01.660Z,38
2019-03-30T07:00:03.900Z,43
2019-03-30T07:01:01.760Z,48
2019-03-30T07:02:01.947Z,45
2019-03-30T07:03:02.259Z,42
2019-03-30T07:04:02.583Z,42
2019-03-30T07:05:01.691Z,47
2019-03-30T07:06:01.986Z,38
2019-03-30T07:07:02.171Z,41
2019-03-30T07:08:02.369Z,42
2019-03-30T07:09:02.698Z,38
2019-03-30T07:10:01.894Z,42
2019-03-30T07:11:02.025Z,41
2019-03-30T07:12:02.276Z,37
2019-03-30T07:13:02.434Z,38
2019-03-30T07:14:01.670Z,38
2019-03-30T07:15:02.005Z,40
2019-03-30T07:16:02.076Z,45
2019-03-30T07:17:02.247Z,38
2019-03-30T07:18:02.225Z,38
2019-03-30T07:19:02.463Z,38
2019-03-30T07:20:02.466Z,42
2019-03-30T07:21:02.616Z,42
2019-03-30T07:22:01.874Z,34
2019-03-30T07:23:12.844Z,36
2019-03-30T07:24:07.820Z,39
2019-03-30T07:25:02.508Z,38
2019-03-30T07:26:01.722Z,41
2019-03-30T07:27:02.052Z,42
2019-03-30T07:28:02.193Z,36
2019-03-30T07:29:02.378Z,39
2019-03-30T07:30:02.582Z,35
2019-03-30T07:31:01.797Z,36
2019-03-30T07:32:02.120Z,39
2019-03-30T07:33:01.825Z,40
2019-03-30T07:34:02.033Z,36
2019-03-30T07:35:02.276Z,39
2019-03-30T07:36:02.550Z,41
2019-03-30T07:37:01.830Z,31
2019-03-30T07:38:02.127Z,33
2019-03-30T07:39:02.243Z,42
2019-03-30T07:40:02.538Z,41
2019-03-30T07:41:01.969Z,35
2019-03-30T07:42:01.904Z,35
2019-03-30T07:43:02.167Z,44
2019-03-30T07:44:02.155Z,35
2019-03-30T07:45:02.406Z,35
2019-03-30T07:46:01.637Z,30
2019-03-30T07:47:01.884Z,34
2019-03-30T07:48:02.144Z,36
2019-03-30T07:49:02.357Z,34
2019-03-30T07:50:02.631Z,30
2019-03-30T07:51:01.880Z,37
2019-03-30T07:52:02.100Z,31
2019-03-30T07:53:02.381Z,35
2019-03-30T07:54:02.588Z,34
2019-03-30T07:55:01.899Z,32
2019-03-30T07:56:09.146Z,36
2019-03-30T07:57:17.396Z,24
2019-03-30T07:58:02.383Z,30
2019-03-30T07:59:02.308Z,31
2019-03-30T08:00:03.662Z,34
2019-03-30T08:01:02.573Z,29
2019-03-30T08:02:01.755Z,33
2019-03-30T08:03:01.990Z,33
2019-03-30T08:04:02.303Z,40
2019-03-30T08:05:02.577Z,40
2019-03-30T08:06:01.777Z,36
2019-03-30T08:07:02.075Z,37
2019-03-30T08:08:02.370Z,30
2019-03-30T08:09:01.646Z,46
2019-03-30T08:10:01.952Z,51
2019-03-30T08:11:02.129Z,52
2019-03-30T08:12:02.386Z,45
2019-03-30T08:13:02.555Z,47
2019-03-30T08:14:01.780Z,44
2019-03-30T08:15:02.038Z,38
2019-03-30T08:16:02.157Z,39
2019-03-30T08:17:02.508Z,33
2019-03-30T08:18:01.718Z,39
2019-03-30T08:19:01.878Z,41
2019-03-30T08:20:02.210Z,38
2019-03-30T08:21:02.355Z,39
2019-03-30T08:22:02.529Z,36
2019-03-30T08:23:01.843Z,42
2019-03-30T08:24:02.072Z,39
2019-03-30T08:25:02.347Z,37
2019-03-30T08:26:02.552Z,34
2019-03-30T08:27:01.887Z,38
2019-03-30T08:28:02.040Z,37
2019-03-30T08:29:02.260Z,34
2019-03-30T08:30:02.535Z,33
2019-03-30T08:31:01.757Z,46
2019-03-30T08:32:02.045Z,50
2019-03-30T08:33:02.243Z,53
2019-03-30T08:34:02.516Z,52
2019-03-30T08:35:01.797Z,53
2019-03-30T08:36:01.985Z,51
2019-03-30T08:37:02.277Z,53
2019-03-30T08:38:02.415Z,52
2019-03-30T08:39:01.673Z,53
2019-03-30T08:40:01.926Z,56
2019-03-30T08:41:02.072Z,58
2019-03-30T08:42:02.105Z,56
2019-03-30T08:43:02.323Z,55
2019-03-30T08:44:02.705Z,53
2019-03-30T08:45:05.030Z,55
2019-03-30T08:46:02.191Z,52
2019-03-30T08:47:02.482Z,56
2019-03-30T08:48:02.565Z,56
2019-03-30T08:49:01.768Z,57
2019-03-30T08:50:02.133Z,55
2019-03-30T08:51:02.306Z,57
2019-03-30T08:52:02.578Z,57
2019-03-30T08:53:01.839Z,54
2019-03-30T08:54:01.947Z,60
2019-03-30T08:55:02.246Z,60
2019-03-30T08:56:02.492Z,55
2019-03-30T08:57:01.716Z,60
2019-03-30T08:58:01.906Z,57
2019-03-30T08:59:02.165Z,53
2019-03-30T09:00:06.056Z,60
2019-03-30T09:01:01.897Z,61
2019-03-30T09:02:02.082Z,56
2019-03-30T09:03:02.223Z,56
2019-03-30T09:04:02.405Z,56
2019-03-30T09:05:02.591Z,57
2019-03-30T09:06:01.732Z,59
2019-03-30T09:07:01.836Z,59
2019-03-30T09:08:01.979Z,56
2019-03-30T09:09:02.316Z,61
2019-03-30T09:10:02.513Z,63
2019-03-30T09:11:01.657Z,63
2019-03-30T09:12:01.789Z,57
2019-03-30T09:13:02.037Z,60
2019-03-30T09:14:02.297Z,60
2019-03-30T09:15:01.749Z,61
2019-03-30T09:16:02.076Z,60
2019-03-30T09:17:02.373Z,62
2019-03-30T09:18:02.492Z,58
2019-03-30T09:19:01.700Z,62
2019-03-30T09:20:02.009Z,62
2019-03-30T09:21:02.212Z,62
2019-03-30T09:22:02.415Z,59
2019-03-30T09:23:01.646Z,58
2019-03-30T09:24:10.629Z,62
2019-03-30T09:25:02.129Z,58
2019-03-30T09:26:02.282Z,62
2019-03-30T09:27:02.422Z,62
2019-03-30T09:28:01.641Z,59
2019-03-30T09:29:01.814Z,62
2019-03-30T09:30:02.211Z,56
2019-03-30T09:31:02.322Z,64
2019-03-30T09:32:15.266Z,60
2019-03-30T09:33:01.655Z,61
2019-03-30T09:34:01.895Z,65
2019-03-30T09:35:02.215Z,63
2019-03-30T09:36:02.395Z,64
2019-03-30T09:37:02.620Z,60
2019-03-30T09:38:01.707Z,62
2019-03-30T09:39:01.904Z,62
2019-03-30T09:40:02.224Z,62
2019-03-30T09:41:02.165Z,68
2019-03-30T09:42:02.325Z,62
2019-03-30T09:43:02.538Z,63
2019-03-30T09:44:01.799Z,61
2019-03-30T09:45:02.014Z,62
2019-03-30T09:46:02.246Z,61
2019-03-30T09:47:02.338Z,63
2019-03-30T09:48:02.534Z,62
2019-03-30T09:49:01.732Z,62
2019-03-30T09:50:03.276Z,58
2019-03-30T09:51:02.308Z,62
2019-03-30T09:52:02.475Z,61
2019-03-30T09:53:01.705Z,57
2019-03-30T09:54:01.918Z,65
2019-03-30T09:55:02.018Z,64
2019-03-30T09:56:02.297Z,62
2019-03-30T09:57:02.165Z,63
2019-03-30T09:58:02.378Z,63
2019-03-30T09:59:02.485Z,67
2019-03-30T10:00:04.214Z,60
2019-03-30T10:01:02.088Z,64
2019-03-30T10:02:02.187Z,61
2019-03-30T10:03:05.817Z,63
2019-03-30T10:04:02.565Z,63
2019-03-30T10:05:02.022Z,63
2019-03-30T10:06:02.061Z,62
2019-03-30T10:07:02.164Z,60
2019-03-30T10:08:02.020Z,63
2019-03-30T10:09:02.293Z,63
2019-03-30T10:10:02.577Z,59
2019-03-30T10:11:01.720Z,64
2019-03-30T10:12:01.884Z,65
2019-03-30T10:13:02.100Z,63
2019-03-30T10:14:02.395Z,67
2019-03-30T10:15:02.600Z,67
2019-03-30T10:16:01.757Z,69
2019-03-30T10:17:01.967Z,64
2019-03-30T10:18:02.151Z,63
2019-03-30T10:19:02.431Z,60
2019-03-30T10:20:05.458Z,62
2019-03-30T10:21:01.848Z,67
2019-03-30T10:22:02.076Z,63
2019-03-30T10:23:02.203Z,63
2019-03-30T10:24:02.478Z,65
2019-03-30T10:25:01.707Z,65
2019-03-30T10:26:01.923Z,70
2019-03-30T10:27:02.201Z,65
2019-03-30T10:28:02.315Z,67
2019-03-30T10:29:02.557Z,63
2019-03-30T10:30:01.827Z,65
2019-03-30T10:31:01.951Z,60
2019-03-30T10:32:02.110Z,62
2019-03-30T10:33:02.376Z,64
2019-03-30T10:34:02.554Z,63
2019-03-30T10:35:01.755Z,63
2019-03-30T10:36:02.044Z,62
2019-03-30T10:37:02.218Z,64
2019-03-30T10:38:02.460Z,67
2019-03-30T10:39:01.673Z,61
2019-03-30T10:40:01.929Z,63
2019-03-30T10:41:02.150Z,62
2019-03-30T10:42:02.245Z,67
2019-03-30T10:43:02.469Z,63
2019-03-30T10:44:01.663Z,65
2019-03-30T10:45:01.892Z,67
2019-03-30T10:46:02.155Z,68
2019-03-30T10:47:02.366Z,65
2019-03-30T10:48:02.589Z,65
2019-03-30T10:49:01.763Z,64
2019-03-30T10:50:02.022Z,64
2019-03-30T10:51:02.267Z,60
2019-03-30T10:52:02.465Z,67
2019-03-30T10:53:01.747Z,64
2019-03-30T10:54:01.915Z,64
2019-03-30T10:55:02.150Z,63
2019-03-30T10:56:02.343Z,65
2019-03-30T10:57:02.599Z,69
2019-03-30T10:58:01.833Z,67
2019-03-30T10:59:01.909Z,70
2019-03-30T11:00:05.978Z,65
2019-03-30T11:01:02.014Z,69
2019-03-30T11:02:02.262Z,69
2019-03-30T11:03:02.465Z,65
2019-03-30T11:04:01.730Z,67
2019-03-30T11:05:02.053Z,63
2019-03-30T11:06:02.250Z,72
2019-03-30T11:07:02.533Z,69
2019-03-30T11:08:01.677Z,72
2019-03-30T11:09:01.846Z,70
2019-03-30T11:10:02.080Z,68
2019-03-30T11:11:01.818Z,70
2019-03-30T11:12:02.001Z,67
2019-03-30T11:13:02.202Z,73
2019-03-30T11:14:02.420Z,67
2019-03-30T11:15:01.770Z,71
2019-03-30T11:16:01.867Z,72
2019-03-30T11:17:02.113Z,71
2019-03-30T11:18:02.353Z,73
2019-03-30T11:19:02.528Z,70
2019-03-30T11:20:01.847Z,72
2019-03-30T11:21:02.080Z,70
2019-03-30T11:22:03.848Z,70
2019-03-30T11:23:02.462Z,73
2019-03-30T11:24:01.795Z,69
2019-03-30T11:25:09.264Z,71
2019-03-30T11:26:02.157Z,70
2019-03-30T11:27:02.075Z,65
2019-03-30T11:28:02.312Z,68
2019-03-30T11:29:02.422Z,69
2019-03-30T11:30:01.769Z,69
2019-03-30T11:31:05.746Z,69
2019-03-30T11:32:02.131Z,72
2019-03-30T11:33:02.338Z,68
2019-03-30T11:34:02.509Z,74
2019-03-30T11:35:01.785Z,67
2019-03-30T11:36:01.998Z,72
2019-03-30T11:37:02.569Z,67
2019-03-30T11:38:02.581Z,68
2019-03-30T11:39:02.124Z,69
2019-03-30T11:40:02.403Z,70
2019-03-30T11:41:02.551Z,67
2019-03-30T11:42:01.701Z,70
2019-03-30T11:43:02.019Z,71
2019-03-30T11:44:02.169Z,71
2019-03-30T11:45:02.155Z,68
2019-03-30T11:46:02.337Z,71
2019-03-30T11:47:01.579Z,73
2019-03-30T11:48:01.868Z,67
2019-03-30T11:49:02.535Z,68
2019-03-30T11:50:01.777Z,67
2019-03-30T11:51:01.897Z,65
2019-03-30T11:52:02.098Z,63
2019-03-30T11:53:02.371Z,67
2019-03-30T11:54:02.496Z,64
2019-03-30T11:55:01.735Z,69
2019-03-30T11:56:01.949Z,68
2019-03-30T11:57:02.221Z,69
2019-03-30T11:58:02.416Z,65
2019-03-30T11:59:02.503Z,67
2019-03-30T12:00:05.542Z,65
2019-03-30T12:01:02.360Z,65
2019-03-30T12:02:02.519Z,63
2019-03-30T12:03:01.796Z,68
2019-03-30T12:04:01.912Z,71
2019-03-30T12:05:02.384Z,69
2019-03-30T12:06:02.448Z,64
2019-03-30T12:07:01.673Z,63
2019-03-30T12:08:01.989Z,64
2019-03-30T12:09:02.055Z,65
2019-03-30T12:10:02.367Z,65
2019-03-30T12:11:02.480Z,65
2019-03-30T12:12:01.655Z,63
2019-03-30T12:13:01.895Z,70
2019-03-30T12:14:02.020Z,64
2019-03-30T12:15:02.178Z,62
2019-03-30T12:16:02.352Z,67
2019-03-30T12:17:01.702Z,69
2019-03-30T12:18:01.864Z,69
2019-03-30T12:19:02.059Z,62
2019-03-30T12:20:02.365Z,67
2019-03-30T12:21:02.563Z,59
2019-03-30T12:22:01.682Z,64
2019-03-30T12:23:02.205Z,64
2019-03-30T12:24:02.375Z,65
2019-03-30T12:25:02.687Z,63
2019-03-30T12:26:01.816Z,62
2019-03-30T12:27:02.002Z,63
2019-03-30T12:28:02.272Z,65
2019-03-30T12:29:02.056Z,62
2019-03-30T12:30:02.505Z,65
2019-03-30T12:31:01.731Z,64
2019-03-30T12:32:01.840Z,60
2019-03-30T12:33:02.038Z,62
2019-03-30T12:34:02.233Z,63
2019-03-30T12:35:02.470Z,62
2019-03-30T12:36:01.652Z,65
2019-03-30T12:37:01.778Z,64
2019-03-30T12:38:02.060Z,63
2019-03-30T12:39:02.382Z,63
2019-03-30T12:40:02.545Z,63
2019-03-30T12:41:01.703Z,62
2019-03-30T12:42:01.928Z,70
2019-03-30T12:43:01.971Z,68
2019-03-30T12:44:02.261Z,65
2019-03-30T12:45:02.207Z,67
2019-03-30T12:46:02.471Z,61
2019-03-30T12:47:02.558Z,62
2019-03-30T12:48:01.747Z,64
2019-03-30T12:49:01.980Z,63
2019-03-30T12:50:02.259Z,65
2019-03-30T12:51:02.348Z,63
2019-03-30T12:52:02.534Z,61
2019-03-30T12:53:01.748Z,65
2019-03-30T12:54:01.987Z,63
2019-03-30T12:55:02.189Z,65
2019-03-30T12:56:02.423Z,61
2019-03-30T12:57:02.339Z,67
2019-03-30T12:58:02.586Z,63
2019-03-30T12:59:01.814Z,65
2019-03-30T13:00:04.158Z,64
2019-03-30T13:01:02.017Z,67
2019-03-30T13:02:02.141Z,68
2019-03-30T13:03:02.319Z,65
2019-03-30T13:04:02.684Z,68
2019-03-30T13:05:01.788Z,69
2019-03-30T13:06:02.021Z,68
2019-03-30T13:07:02.160Z,69
2019-03-30T13:08:02.494Z,71
2019-03-30T13:09:02.258Z,69
2019-03-30T13:10:02.407Z,70
2019-03-30T13:11:02.050Z,70
2019-03-30T13:12:02.202Z,69
2019-03-30T13:13:02.267Z,68
2019-03-30T13:14:02.401Z,73
2019-03-30T13:15:01.736Z,68
2019-03-30T13:16:02.142Z,70
2019-03-30T13:17:02.371Z,67
2019-03-30T13:18:02.592Z,62
2019-03-30T13:19:01.745Z,70
2019-03-30T13:20:02.020Z,70
2019-03-30T13:21:02.224Z,64
2019-03-30T13:22:02.378Z,67
2019-03-30T13:23:01.746Z,65
2019-03-30T13:24:01.879Z,70
2019-03-30T13:25:02.058Z,64
2019-03-30T13:26:04.527Z,63
2019-03-30T13:27:02.544Z,64
2019-03-30T13:28:01.913Z,65
2019-03-30T13:29:02.164Z,63
2019-03-30T13:30:02.404Z,67
2019-03-30T13:31:02.577Z,67
2019-03-30T13:32:01.894Z,72
2019-03-30T13:33:02.093Z,62
2019-03-30T13:34:02.361Z,63
2019-03-30T13:35:02.294Z,62
2019-03-30T13:36:02.440Z,65
2019-03-30T13:37:01.699Z,68
2019-03-30T13:38:01.942Z,65
2019-03-30T13:39:02.205Z,63
2019-03-30T13:40:01.697Z,64
2019-03-30T13:41:01.931Z,65
2019-03-30T13:42:02.115Z,65
2019-03-30T13:43:02.433Z,65
2019-03-30T13:44:01.642Z,65
2019-03-30T13:45:04.273Z,63
2019-03-30T13:46:02.081Z,67
2019-03-30T13:47:02.236Z,67
2019-03-30T13:48:02.520Z,63
2019-03-30T13:49:01.678Z,63
2019-03-30T13:50:01.973Z,63
2019-03-30T13:51:02.184Z,63
2019-03-30T13:52:02.386Z,59
2019-03-30T13:53:02.606Z,67
2019-03-30T13:54:01.855Z,61
2019-03-30T13:55:01.980Z,60
2019-03-30T13:56:01.894Z,60
2019-03-30T13:57:02.137Z,59
2019-03-30T13:58:02.292Z,61
2019-03-30T13:59:02.608Z,65
2019-03-30T14:00:04.074Z,68
2019-03-30T14:01:01.863Z,62
2019-03-30T14:02:02.129Z,61
2019-03-30T14:03:02.307Z,63
2019-03-30T14:04:02.522Z,65
2019-03-30T14:05:01.862Z,63
2019-03-30T14:06:01.984Z,65
2019-03-30T14:07:02.174Z,60
2019-03-30T14:08:02.370Z,61
2019-03-30T14:09:02.519Z,59
2019-03-30T14:10:02.525Z,62
2019-03-30T14:11:01.811Z,61
2019-03-30T14:12:01.915Z,61
2019-03-30T14:13:02.059Z,62
2019-03-30T14:14:02.276Z,65
2019-03-30T14:15:02.474Z,60